createdAt,value
2017-10-23T00:00:08.545Z,21.7
2017-10-23T00:00:36.754Z,21.68
2017-10-23T00:01:04.658Z,21.66
2017-10-23T00:01:32.702Z,21.69
2017-10-23T00:02:00.702Z,21.74
2017-10-23T00:02:28.767Z,21.6
2017-10-23T00:02:56.771Z,21.62
2017-10-23T00:03:24.680Z,21.66
2017-10-23T00:03:52.500Z,21.7
2017-10-23T00:04:20.322Z,21.66
2017-10-23T00:04:48.453Z,21.68
2017-10-23T00:05:16.573Z,21.72
2017-10-23T00:05:44.699Z,21.63
2017-10-23T00:06:12.609Z,21.7
2017-10-23T00:06:40.691Z,21.6
2017-10-23T00:07:08.706Z,21.53
2017-10-23T00:07:36.607Z,21.62
2017-10-23T00:08:04.607Z,21.56
2017-10-23T00:08:32.596Z,21.53
2017-10-23T00:09:00.531Z,21.44
2017-10-23T00:09:28.430Z,21.32
2017-10-23T00:09:56.541Z,21.33
2017-10-23T00:10:24.530Z,21.29
2017-10-23T00:10:52.654Z,21.26
2017-10-23T00:11:20.692Z,21.26
2017-10-23T00:11:48.621Z,21.23
2017-10-23T00:12:16.439Z,21.19
2017-10-23T00:12:44.366Z,21.19
2017-10-23T00:13:12.169Z,21.23
2017-10-23T00:13:40.272Z,21.26
2017-10-23T00:14:08.210Z,21.2
2017-10-23T00:14:36.133Z,21.2
2017-10-23T00:15:04.154Z,21.17
2017-10-23T00:15:32.293Z,21.15
2017-10-23T00:16:00.312Z,21.15
2017-10-23T00:16:28.401Z,21.15
2017-10-23T00:16:56.100Z,21.19
2017-10-23T00:17:24.190Z,21.25
2017-10-23T00:17:52.246Z,21.19
2017-10-23T00:18:20.163Z,21.08
2017-10-23T00:18:48.257Z,21.07
2017-10-23T00:19:16.364Z,21.23
2017-10-23T00:19:44.464Z,21.17
2017-10-23T00:20:12.382Z,21.04
2017-10-23T00:20:40.577Z,20.98
2017-10-23T00:21:08.610Z,20.98
2017-10-23T00:21:36.532Z,21.01
2017-10-23T00:22:04.557Z,21.01
2017-10-23T00:22:32.585Z,21.03
2017-10-23T00:23:00.596Z,21.08
2017-10-23T00:23:28.615Z,21.07
2017-10-23T00:23:56.523Z,20.93
2017-10-23T00:24:24.434Z,20.9
2017-10-23T00:24:52.518Z,20.9
2017-10-23T00:25:20.647Z,20.96
2017-10-23T00:25:48.443Z,21.05
2017-10-23T00:26:16.255Z,20.93
2017-10-23T00:26:44.085Z,20.96
2017-10-23T00:27:12.094Z,20.92
2017-10-23T00:27:40.085Z,21.07
2017-10-23T00:28:08.116Z,21.01
2017-10-23T00:28:36.181Z,20.96
2017-10-23T00:29:04.322Z,20.98
2017-10-23T00:29:32.338Z,20.9
2017-10-23T00:30:00.353Z,21.03
2017-10-23T00:30:28.340Z,20.96
2017-10-23T00:30:56.349Z,21.07
2017-10-23T00:31:24.378Z,20.93
2017-10-23T00:31:52.389Z,20.92
2017-10-23T00:32:20.499Z,20.92
2017-10-23T00:32:48.508Z,20.96
2017-10-23T00:33:16.635Z,21
2017-10-23T00:33:44.756Z,20.98
2017-10-23T00:34:12.871Z,21.04
2017-10-23T00:34:40.979Z,21.04
2017-10-23T00:35:08.906Z,21.03
2017-10-23T00:35:37.026Z,21.04
2017-10-23T00:36:05.106Z,21.01
2017-10-23T00:36:33.126Z,21.04
2017-10-23T00:37:01.132Z,21.1
2017-10-23T00:37:29.158Z,21.11
2017-10-23T00:37:57.043Z,21.07
2017-10-23T00:38:25.055Z,21.1
2017-10-23T00:38:53.077Z,21.05
2017-10-23T00:39:21.217Z,21.08
2017-10-23T00:39:49.222Z,21.17
2017-10-23T00:40:17.353Z,21.15
2017-10-23T00:40:46.263Z,21.15
2017-10-23T00:41:14.074Z,21.17
2017-10-23T00:41:42.090Z,21.15
2017-10-23T00:42:10.236Z,21.15
2017-10-23T00:42:38.128Z,21.2
2017-10-23T00:43:06.149Z,21.14
2017-10-23T00:43:34.179Z,21.15
2017-10-23T00:44:02.300Z,21.15
2017-10-23T00:44:30.131Z,21.22
2017-10-23T00:44:58.127Z,21.25
2017-10-23T00:45:26.141Z,21.19
2017-10-23T00:45:54.173Z,21.13
2017-10-23T00:46:22.179Z,21.2
2017-10-23T00:46:50.202Z,21.17
2017-10-23T00:47:18.084Z,21.08
2017-10-23T00:47:46.105Z,21.2
2017-10-23T00:48:14.211Z,21.11
2017-10-23T00:48:42.351Z,21.17
2017-10-23T00:49:10.460Z,21.15
2017-10-23T00:49:38.384Z,21.22
2017-10-23T00:50:06.394Z,21.19
2017-10-23T00:50:34.503Z,21.14
2017-10-23T00:51:02.411Z,21.13
2017-10-23T00:51:30.318Z,21.11
2017-10-23T00:51:58.409Z,21.15
2017-10-23T00:52:26.514Z,21.14
2017-10-23T00:52:54.540Z,21.13
2017-10-23T00:53:22.359Z,21.11
2017-10-23T00:53:50.178Z,21.11
2017-10-23T00:54:18.280Z,21.08
2017-10-23T00:54:46.304Z,21.07
2017-10-23T00:55:14.117Z,21.1
2017-10-23T00:55:42.105Z,21.08
2017-10-23T00:56:10.053Z,21.1
2017-10-23T00:56:38.079Z,21.07
2017-10-23T00:57:06.085Z,21.1
2017-10-23T00:57:34.087Z,21.07
2017-10-23T00:58:02.001Z,20.98
2017-10-23T00:58:29.821Z,20.98
2017-10-23T00:58:57.734Z,21.1
2017-10-23T00:59:25.875Z,21.01
2017-10-23T00:59:53.997Z,21.05
2017-10-23T01:00:22.117Z,21.05
2017-10-23T01:00:50.317Z,21.04
2017-10-23T01:01:18.316Z,21.05
2017-10-23T01:01:46.157Z,21.01
2017-10-23T01:02:14.319Z,21.03
2017-10-23T01:02:42.444Z,21.13
2017-10-23T01:03:10.441Z,20.96
2017-10-23T01:03:38.331Z,21.07
2017-10-23T01:04:06.450Z,21.1
2017-10-23T01:04:34.581Z,21.07
2017-10-23T01:05:02.728Z,21.07
2017-10-23T01:05:30.821Z,21.11
2017-10-23T01:05:58.917Z,21.1
2017-10-23T01:06:27.047Z,21.15
2017-10-23T01:06:55.066Z,21.14
2017-10-23T01:07:23.085Z,21.14
2017-10-23T01:07:51.188Z,21.15
2017-10-23T01:08:19.357Z,21.13
2017-10-23T01:08:47.491Z,21.23
2017-10-23T01:09:15.637Z,21.15
2017-10-23T01:09:43.749Z,21.15
2017-10-23T01:10:11.638Z,21.2
2017-10-23T01:10:39.745Z,21.23
2017-10-23T01:11:07.661Z,21.07
2017-10-23T01:11:35.777Z,21.08
2017-10-23T01:12:03.789Z,21.15
2017-10-23T01:12:31.708Z,21.15
2017-10-23T01:12:59.737Z,21.17
2017-10-23T01:13:27.763Z,21.2
2017-10-23T01:13:55.779Z,21.11
2017-10-23T01:14:23.811Z,21.14
2017-10-23T01:14:51.935Z,21.13
2017-10-23T01:15:19.946Z,21.15
2017-10-23T01:15:47.970Z,21.15
2017-10-23T01:16:15.964Z,21.14
2017-10-23T01:16:43.884Z,21.13
2017-10-23T01:17:11.994Z,21.15
2017-10-23T01:17:40.053Z,21.15
2017-10-23T01:18:08.101Z,21.15
2017-10-23T01:18:36.096Z,21.13
2017-10-23T01:19:04.219Z,21.15
2017-10-23T01:19:32.253Z,21.2
2017-10-23T01:20:00.168Z,21.15
2017-10-23T01:20:28.084Z,21.15
2017-10-23T01:20:56.103Z,21.2
2017-10-23T01:21:24.150Z,21.15
2017-10-23T01:21:51.973Z,21.14
2017-10-23T01:22:19.981Z,21.17
2017-10-23T01:22:48.020Z,21.17
2017-10-23T01:23:15.928Z,21.2
2017-10-23T01:23:44.053Z,21.15
2017-10-23T01:24:12.052Z,21.15
2017-10-23T01:24:40.077Z,21.15
2017-10-23T01:25:08.089Z,21.14
2017-10-23T01:25:36.079Z,21.13
2017-10-23T01:26:04.225Z,21.22
2017-10-23T01:26:32.225Z,21.19
2017-10-23T01:27:00.257Z,21.15
2017-10-23T01:27:28.382Z,21.17
2017-10-23T01:27:56.319Z,21.08
2017-10-23T01:28:24.319Z,21.15
2017-10-23T01:28:52.324Z,21.11
2017-10-23T01:29:20.308Z,21.14
2017-10-23T01:29:48.336Z,21.08
2017-10-23T01:30:16.157Z,21.11
2017-10-23T01:30:44.266Z,21.14
2017-10-23T01:31:12.293Z,21.08
2017-10-23T01:31:40.312Z,21.15
2017-10-23T01:32:08.439Z,21.08
2017-10-23T01:32:36.432Z,21.08
2017-10-23T01:33:04.239Z,21.11
2017-10-23T01:33:32.251Z,21.11
2017-10-23T01:34:00.364Z,21.11
2017-10-23T01:34:28.304Z,21.14
2017-10-23T01:34:56.414Z,21.1
2017-10-23T01:35:24.440Z,21.1
2017-10-23T01:35:52.358Z,21.04
2017-10-23T01:36:20.469Z,21.08
2017-10-23T01:36:48.358Z,21.13
2017-10-23T01:37:16.274Z,21.05
2017-10-23T01:37:44.291Z,21.07
2017-10-23T01:38:12.232Z,21.07
2017-10-23T01:38:40.361Z,21.11
2017-10-23T01:39:08.297Z,21.1
2017-10-23T01:39:36.216Z,21.01
2017-10-23T01:40:04.237Z,21.04
2017-10-23T01:40:32.120Z,21.11
2017-10-23T01:41:00.282Z,21.03
2017-10-23T01:41:28.001Z,20.98
2017-10-23T01:41:56.125Z,21.04
2017-10-23T01:42:24.232Z,21.01
2017-10-23T01:42:52.230Z,21.05
2017-10-23T01:43:20.226Z,21.05
2017-10-23T01:43:48.310Z,21.04
2017-10-23T01:44:16.313Z,21.03
2017-10-23T01:44:44.141Z,21
2017-10-23T01:45:12.030Z,21.04
2017-10-23T01:45:40.030Z,21
2017-10-23T01:46:08.051Z,21.03
2017-10-23T01:46:36.156Z,20.96
2017-10-23T01:47:04.078Z,21.03
2017-10-23T01:47:32.001Z,21.05
2017-10-23T01:48:00.004Z,21
2017-10-23T01:48:28.132Z,21.04
2017-10-23T01:48:56.216Z,21.01
2017-10-23T01:49:24.317Z,20.95
2017-10-23T01:49:52.469Z,20.98
2017-10-23T01:50:20.243Z,21
2017-10-23T01:50:48.122Z,21.04
2017-10-23T01:51:16.118Z,21.03
2017-10-23T01:51:44.001Z,21.01
2017-10-23T01:52:12.118Z,21.05
2017-10-23T01:52:40.137Z,20.95
2017-10-23T01:53:10.624Z,21
2017-10-23T01:53:36.284Z,21.03
2017-10-23T01:54:04.396Z,21.05
2017-10-23T01:54:32.423Z,20.86
2017-10-23T01:55:00.359Z,21.03
2017-10-23T01:55:28.381Z,20.95
2017-10-23T01:55:56.511Z,20.96
2017-10-23T01:56:24.427Z,21.04
2017-10-23T01:56:52.540Z,20.88
2017-10-23T01:57:20.450Z,20.98
2017-10-23T01:57:48.386Z,20.89
2017-10-23T01:58:16.399Z,20.9
2017-10-23T01:58:44.328Z,20.83
2017-10-23T01:59:12.253Z,20.96
2017-10-23T01:59:40.275Z,20.9
2017-10-23T02:00:08.302Z,20.95
2017-10-23T02:00:36.404Z,20.95
2017-10-23T02:01:04.301Z,20.96
2017-10-23T02:01:32.441Z,20.93
2017-10-23T02:02:00.543Z,20.88
2017-10-23T02:02:28.538Z,20.86
2017-10-23T02:02:56.559Z,20.88
2017-10-23T02:03:24.669Z,21.03
2017-10-23T02:03:52.574Z,20.93
2017-10-23T02:04:20.454Z,20.89
2017-10-23T02:04:48.465Z,20.88
2017-10-23T02:05:16.479Z,20.95
2017-10-23T02:05:44.510Z,20.92
2017-10-23T02:06:12.538Z,20.88
2017-10-23T02:06:40.621Z,20.96
2017-10-23T02:07:08.548Z,20.9
2017-10-23T02:07:36.490Z,20.93
2017-10-23T02:08:04.534Z,20.95
2017-10-23T02:08:32.646Z,21.03
2017-10-23T02:09:00.661Z,21.03
2017-10-23T02:09:28.702Z,20.93
2017-10-23T02:09:56.829Z,20.95
2017-10-23T02:10:24.933Z,20.98
2017-10-23T02:10:52.930Z,20.89
2017-10-23T02:11:20.967Z,20.95
2017-10-23T02:11:48.953Z,21
2017-10-23T02:12:16.980Z,21.01
2017-10-23T02:12:44.894Z,20.96
2017-10-23T02:13:12.709Z,20.95
2017-10-23T02:13:40.605Z,21
2017-10-23T02:14:08.507Z,21
2017-10-23T02:14:36.331Z,20.96
2017-10-23T02:15:04.426Z,20.95
2017-10-23T02:15:32.536Z,21.03
2017-10-23T02:16:00.533Z,20.9
2017-10-23T02:16:28.581Z,20.93
2017-10-23T02:16:56.420Z,20.98
2017-10-23T02:17:24.422Z,20.88
2017-10-23T02:17:52.539Z,20.88
2017-10-23T02:18:20.247Z,20.95
2017-10-23T02:18:48.375Z,20.89
2017-10-23T02:19:16.373Z,20.88
2017-10-23T02:19:44.371Z,20.88
2017-10-23T02:20:12.309Z,20.9
2017-10-23T02:20:40.245Z,20.93
2017-10-23T02:21:08.380Z,20.88
2017-10-23T02:21:36.603Z,20.93
2017-10-23T02:22:04.713Z,20.9
2017-10-23T02:22:32.635Z,20.9
2017-10-23T02:23:00.770Z,20.89
2017-10-23T02:23:28.764Z,20.83
2017-10-23T02:23:56.886Z,20.92
2017-10-23T02:24:24.898Z,20.83
2017-10-23T02:24:52.903Z,20.85
2017-10-23T02:25:21.017Z,20.86
2017-10-23T02:25:49.011Z,20.88
2017-10-23T02:26:16.959Z,20.83
2017-10-23T02:26:44.861Z,20.82
2017-10-23T02:27:12.869Z,20.82
2017-10-23T02:27:40.662Z,20.83
2017-10-23T02:28:08.676Z,20.86
2017-10-23T02:28:36.683Z,20.86
2017-10-23T02:29:04.627Z,20.88
2017-10-23T02:29:32.645Z,20.86
2017-10-23T02:30:00.650Z,20.86
2017-10-23T02:30:28.572Z,20.95
2017-10-23T02:30:56.585Z,20.92
2017-10-23T02:31:24.521Z,20.85
2017-10-23T02:31:52.626Z,20.9
2017-10-23T02:32:20.553Z,20.85
2017-10-23T02:32:48.663Z,20.93
2017-10-23T02:33:16.688Z,20.88
2017-10-23T02:33:44.733Z,20.98
2017-10-23T02:34:12.737Z,20.82
2017-10-23T02:34:40.743Z,20.88
2017-10-23T02:35:08.622Z,20.93
2017-10-23T02:35:36.635Z,20.9
2017-10-23T02:36:04.771Z,20.95
2017-10-23T02:36:32.486Z,20.9
2017-10-23T02:37:00.642Z,20.83
2017-10-23T02:37:28.537Z,20.86
2017-10-23T02:37:56.566Z,20.86
2017-10-23T02:38:24.689Z,20.89
2017-10-23T02:38:52.699Z,20.92
2017-10-23T02:39:20.688Z,20.98
2017-10-23T02:39:48.699Z,20.95
2017-10-23T02:40:16.721Z,20.93
2017-10-23T02:40:44.628Z,20.96
2017-10-23T02:41:12.746Z,20.93
2017-10-23T02:41:40.861Z,20.92
2017-10-23T02:42:08.796Z,20.88
2017-10-23T02:42:36.828Z,20.93
2017-10-23T02:43:04.856Z,20.88
2017-10-23T02:43:32.791Z,20.88
2017-10-23T02:44:00.887Z,20.9
2017-10-23T02:44:28.907Z,21
2017-10-23T02:44:56.947Z,20.98
2017-10-23T02:45:24.866Z,21.04
2017-10-23T02:45:52.790Z,21.04
2017-10-23T02:46:20.691Z,21
2017-10-23T02:46:48.698Z,21.04
2017-10-23T02:47:16.713Z,20.95
2017-10-23T02:47:44.616Z,20.88
2017-10-23T02:48:12.545Z,20.86
2017-10-23T02:48:40.563Z,21.03
2017-10-23T02:49:08.485Z,20.85
2017-10-23T02:49:36.621Z,20.9
2017-10-23T02:50:04.627Z,20.92
2017-10-23T02:50:32.760Z,20.89
2017-10-23T02:51:00.790Z,20.9
2017-10-23T02:51:28.902Z,20.9
2017-10-23T02:51:57.026Z,20.9
2017-10-23T02:52:25.149Z,20.88
2017-10-23T02:52:53.164Z,20.9
2017-10-23T02:53:21.293Z,20.82
2017-10-23T02:53:49.362Z,20.88
2017-10-23T02:54:17.365Z,20.9
2017-10-23T02:54:45.490Z,20.9
2017-10-23T02:55:13.541Z,20.93
2017-10-23T02:55:41.451Z,20.88
2017-10-23T02:56:09.448Z,20.9
2017-10-23T02:56:37.470Z,20.89
2017-10-23T02:57:05.628Z,20.96
2017-10-23T02:57:33.641Z,20.86
2017-10-23T02:58:01.765Z,20.9
2017-10-23T02:58:29.711Z,20.95
2017-10-23T02:58:57.823Z,20.9
2017-10-23T02:59:25.733Z,20.95
2017-10-23T02:59:53.761Z,20.83
2017-10-23T03:00:21.794Z,20.89
2017-10-23T03:00:49.825Z,20.9
2017-10-23T03:01:17.948Z,20.93
2017-10-23T03:01:45.965Z,20.89
2017-10-23T03:02:14.183Z,20.88
2017-10-23T03:02:42.293Z,20.8
2017-10-23T03:03:10.300Z,20.83
2017-10-23T03:03:38.336Z,20.78
2017-10-23T03:04:06.381Z,20.82
2017-10-23T03:04:34.490Z,20.83
2017-10-23T03:05:02.397Z,20.88
2017-10-23T03:05:30.431Z,20.85
2017-10-23T03:05:58.551Z,20.88
2017-10-23T03:06:26.574Z,20.93
2017-10-23T03:06:54.837Z,20.82
2017-10-23T03:07:22.853Z,20.83
2017-10-23T03:07:50.746Z,20.89
2017-10-23T03:08:18.851Z,20.92
2017-10-23T03:08:46.997Z,20.8
2017-10-23T03:09:15.108Z,20.9
2017-10-23T03:09:43.143Z,20.9
2017-10-23T03:10:11.243Z,20.92
2017-10-23T03:10:39.355Z,20.82
2017-10-23T03:11:07.281Z,20.9
2017-10-23T03:11:35.401Z,20.93
2017-10-23T03:12:03.502Z,20.85
2017-10-23T03:12:31.521Z,20.9
2017-10-23T03:12:59.451Z,20.96
2017-10-23T03:13:27.432Z,20.9
2017-10-23T03:13:55.439Z,20.98
2017-10-23T03:14:23.453Z,20.93
2017-10-23T03:14:51.460Z,20.88
2017-10-23T03:15:19.470Z,20.9
2017-10-23T03:15:47.584Z,20.92
2017-10-23T03:16:15.723Z,20.86
2017-10-23T03:16:43.658Z,20.9
2017-10-23T03:17:11.794Z,20.9
2017-10-23T03:17:39.791Z,20.89
2017-10-23T03:18:07.814Z,20.93
2017-10-23T03:18:35.846Z,20.95
2017-10-23T03:19:03.861Z,20.9
2017-10-23T03:19:31.786Z,20.9
2017-10-23T03:19:59.888Z,21.03
2017-10-23T03:20:27.983Z,21.01
2017-10-23T03:20:56.102Z,20.9
2017-10-23T03:21:24.214Z,20.89
2017-10-23T03:21:52.330Z,20.88
2017-10-23T03:22:20.460Z,20.92
2017-10-23T03:22:48.397Z,20.93
2017-10-23T03:23:16.316Z,20.92
2017-10-23T03:23:44.338Z,20.98
2017-10-23T03:24:12.357Z,20.92
2017-10-23T03:24:40.386Z,21.01
2017-10-23T03:25:08.398Z,20.98
2017-10-23T03:25:36.506Z,21.04
2017-10-23T03:26:04.519Z,20.93
2017-10-23T03:26:32.631Z,21.05
2017-10-23T03:27:00.567Z,20.95
2017-10-23T03:27:28.582Z,21.07
2017-10-23T03:27:56.676Z,21.07
2017-10-23T03:28:24.664Z,21.03
2017-10-23T03:28:52.796Z,21
2017-10-23T03:29:20.693Z,21
2017-10-23T03:29:48.828Z,21.07
2017-10-23T03:30:17.545Z,21.11
2017-10-23T03:30:45.467Z,21.07
2017-10-23T03:31:13.479Z,20.98
2017-10-23T03:31:41.475Z,21.04
2017-10-23T03:32:09.479Z,20.92
2017-10-23T03:32:37.600Z,20.95
2017-10-23T03:33:05.730Z,20.92
2017-10-23T03:33:33.850Z,20.9
2017-10-23T03:34:01.953Z,20.93
2017-10-23T03:34:30.054Z,20.92
2017-10-23T03:34:57.960Z,20.9
2017-10-23T03:35:25.787Z,20.82
2017-10-23T03:35:53.695Z,20.89
2017-10-23T03:36:21.715Z,20.78
2017-10-23T03:36:49.734Z,20.83
2017-10-23T03:37:17.964Z,20.86
2017-10-23T03:37:46.008Z,20.85
2017-10-23T03:38:14.111Z,20.89
2017-10-23T03:38:42.234Z,20.77
2017-10-23T03:39:10.361Z,20.9
2017-10-23T03:39:38.475Z,20.85
2017-10-23T03:40:06.587Z,20.78
2017-10-23T03:40:34.614Z,20.73
2017-10-23T03:41:02.628Z,20.82
2017-10-23T03:41:30.572Z,20.77
2017-10-23T03:41:58.586Z,20.83
2017-10-23T03:42:26.602Z,20.74
2017-10-23T03:42:54.604Z,20.78
2017-10-23T03:43:22.522Z,20.77
2017-10-23T03:43:50.254Z,20.71
2017-10-23T03:44:18.395Z,20.75
2017-10-23T03:44:46.493Z,20.71
2017-10-23T03:45:14.409Z,20.77
2017-10-23T03:45:42.417Z,20.68
2017-10-23T03:46:10.501Z,20.7
2017-10-23T03:46:38.619Z,20.7
2017-10-23T03:47:06.605Z,20.73
2017-10-23T03:47:34.727Z,20.75
2017-10-23T03:48:02.798Z,20.68
2017-10-23T03:48:30.936Z,20.63
2017-10-23T03:48:58.950Z,20.63
2017-10-23T03:49:27.028Z,20.64
2017-10-23T03:49:55.028Z,20.66
2017-10-23T03:50:23.139Z,20.63
2017-10-23T03:50:51.135Z,20.64
2017-10-23T03:51:19.259Z,20.63
2017-10-23T03:51:47.337Z,20.63
2017-10-23T03:52:15.452Z,20.59
2017-10-23T03:52:43.590Z,20.58
2017-10-23T03:53:11.635Z,20.59
2017-10-23T03:53:39.458Z,20.52
2017-10-23T03:54:07.479Z,20.55
2017-10-23T03:54:35.275Z,20.5
2017-10-23T03:55:03.291Z,20.6
2017-10-23T03:55:31.316Z,20.53
2017-10-23T03:55:59.439Z,20.56
2017-10-23T03:56:27.451Z,20.59
2017-10-23T03:56:55.483Z,20.59
2017-10-23T03:57:24.398Z,20.63
2017-10-23T03:57:52.520Z,20.59
2017-10-23T03:58:20.536Z,20.53
2017-10-23T03:58:48.559Z,20.55
2017-10-23T03:59:16.590Z,20.59
2017-10-23T03:59:44.710Z,20.55
2017-10-23T04:00:12.618Z,20.55
2017-10-23T04:00:40.701Z,20.5
2017-10-23T04:01:08.836Z,20.58
2017-10-23T04:01:36.855Z,20.63
2017-10-23T04:02:04.952Z,20.53
2017-10-23T04:02:33.064Z,20.55
2017-10-23T04:03:01.097Z,20.59
2017-10-23T04:03:29.216Z,20.53
2017-10-23T04:03:57.228Z,20.56
2017-10-23T04:04:25.155Z,20.53
2017-10-23T04:04:53.263Z,20.5
2017-10-23T04:05:21.381Z,20.52
2017-10-23T04:05:49.272Z,20.53
2017-10-23T04:06:17.224Z,20.5
2017-10-23T04:06:45.158Z,20.52
2017-10-23T04:07:13.263Z,20.42
2017-10-23T04:07:41.391Z,20.53
2017-10-23T04:08:09.422Z,20.5
2017-10-23T04:08:37.424Z,20.53
2017-10-23T04:09:05.345Z,20.52
2017-10-23T04:09:33.257Z,20.52
2017-10-23T04:10:01.246Z,20.56
2017-10-23T04:10:29.359Z,20.55
2017-10-23T04:10:57.491Z,20.53
2017-10-23T04:11:25.410Z,20.5
2017-10-23T04:11:53.300Z,20.58
2017-10-23T04:12:21.237Z,20.59
2017-10-23T04:12:49.409Z,20.56
2017-10-23T04:13:17.449Z,20.63
2017-10-23T04:13:45.485Z,20.56
2017-10-23T04:14:13.405Z,20.6
2017-10-23T04:14:41.416Z,20.6
2017-10-23T04:15:09.461Z,20.59
2017-10-23T04:15:37.632Z,20.56
2017-10-23T04:16:05.597Z,20.56
2017-10-23T04:16:33.594Z,20.55
2017-10-23T04:17:01.719Z,20.58
2017-10-23T04:17:29.728Z,20.56
2017-10-23T04:17:57.768Z,20.58
2017-10-23T04:18:25.656Z,20.7
2017-10-23T04:18:53.755Z,20.56
2017-10-23T04:19:21.771Z,20.56
2017-10-23T04:19:49.891Z,20.6
2017-10-23T04:20:17.927Z,20.6
2017-10-23T04:20:45.906Z,20.52
2017-10-23T04:21:14.013Z,20.56
2017-10-23T04:21:42.128Z,20.55
2017-10-23T04:22:10.163Z,20.52
2017-10-23T04:22:38.272Z,20.53
2017-10-23T04:23:06.301Z,20.52
2017-10-23T04:23:34.295Z,20.48
2017-10-23T04:24:02.327Z,20.48
2017-10-23T04:24:30.335Z,20.4
2017-10-23T04:24:58.467Z,20.42
2017-10-23T04:25:26.472Z,20.4
2017-10-23T04:25:54.491Z,20.37
2017-10-23T04:26:22.235Z,20.33
2017-10-23T04:26:50.245Z,20.42
2017-10-23T04:27:18.175Z,20.39
2017-10-23T04:27:46.195Z,20.33
2017-10-23T04:28:14.319Z,20.39
2017-10-23T04:28:42.442Z,20.39
2017-10-23T04:29:10.358Z,20.29
2017-10-23T04:29:38.268Z,20.36
2017-10-23T04:30:06.394Z,20.27
2017-10-23T04:30:34.293Z,20.29
2017-10-23T04:31:02.323Z,20.34
2017-10-23T04:31:30.136Z,20.34
2017-10-23T04:31:58.266Z,20.36
2017-10-23T04:32:26.044Z,20.48
2017-10-23T04:32:54.162Z,20.48
2017-10-23T04:33:22.153Z,20.3
2017-10-23T04:33:50.271Z,20.42
2017-10-23T04:34:18.198Z,20.39
2017-10-23T04:34:46.121Z,20.4
2017-10-23T04:35:14.237Z,20.42
2017-10-23T04:35:42.266Z,20.39
2017-10-23T04:36:10.304Z,20.4
2017-10-23T04:36:38.328Z,20.44
2017-10-23T04:37:06.465Z,20.42
2017-10-23T04:37:34.287Z,20.42
2017-10-23T04:38:02.326Z,20.42
2017-10-23T04:38:30.448Z,20.46
2017-10-23T04:38:58.477Z,20.48
2017-10-23T04:39:26.385Z,20.48
2017-10-23T04:39:54.463Z,20.39
2017-10-23T04:40:22.378Z,20.42
2017-10-23T04:40:50.384Z,20.4
2017-10-23T04:41:18.288Z,20.49
2017-10-23T04:41:46.396Z,20.48
2017-10-23T04:42:14.326Z,20.46
2017-10-23T04:42:42.247Z,20.42
2017-10-23T04:43:10.370Z,20.46
2017-10-23T04:43:38.296Z,20.39
2017-10-23T04:44:06.343Z,20.44
2017-10-23T04:44:35.246Z,20.44
2017-10-23T04:45:03.350Z,20.37
2017-10-23T04:45:31.236Z,20.46
2017-10-23T04:45:59.176Z,20.42
2017-10-23T04:46:27.206Z,20.44
2017-10-23T04:46:55.025Z,20.37
2017-10-23T04:47:23.035Z,20.42
2017-10-23T04:47:51.040Z,20.5
2017-10-23T04:48:18.844Z,20.39
2017-10-23T04:48:46.770Z,20.37
2017-10-23T04:49:14.791Z,20.4
2017-10-23T04:49:42.789Z,20.4
2017-10-23T04:50:10.702Z,20.42
2017-10-23T04:50:38.714Z,20.4
2017-10-23T04:51:06.848Z,20.42
2017-10-23T04:51:34.770Z,20.53
2017-10-23T04:52:02.874Z,20.44
2017-10-23T04:52:30.999Z,20.37
2017-10-23T04:52:59.113Z,20.4
2017-10-23T04:53:27.145Z,20.48
2017-10-23T04:53:55.168Z,20.42
2017-10-23T04:54:23.292Z,20.44
2017-10-23T04:54:51.125Z,20.44
2017-10-23T04:55:19.054Z,20.44
2017-10-23T04:55:47.046Z,20.37
2017-10-23T04:56:14.976Z,20.44
2017-10-23T04:56:42.946Z,20.39
2017-10-23T04:57:10.850Z,20.48
2017-10-23T04:57:38.958Z,20.48
2017-10-23T04:58:06.968Z,20.46
2017-10-23T04:58:34.970Z,20.42
2017-10-23T04:59:03.090Z,20.44
2017-10-23T04:59:31.015Z,20.44
2017-10-23T04:59:58.998Z,20.42
2017-10-23T05:00:27.144Z,20.55
2017-10-23T05:00:55.043Z,20.48
2017-10-23T05:01:23.099Z,20.53
2017-10-23T05:01:51.109Z,20.48
2017-10-23T05:02:19.103Z,20.5
2017-10-23T05:02:47.124Z,20.5
2017-10-23T05:03:15.120Z,20.55
2017-10-23T05:03:43.118Z,20.56
2017-10-23T05:04:11.060Z,20.59
2017-10-23T05:04:39.047Z,20.49
2017-10-23T05:05:06.968Z,20.55
2017-10-23T05:05:34.880Z,20.64
2017-10-23T05:06:03.028Z,20.59
2017-10-23T05:06:30.951Z,20.58
2017-10-23T05:06:58.877Z,20.58
2017-10-23T05:07:27.009Z,20.6
2017-10-23T05:07:54.830Z,20.6
2017-10-23T05:08:23.122Z,20.6
2017-10-23T05:08:51.024Z,20.56
2017-10-23T05:09:19.003Z,20.59
2017-10-23T05:09:47.001Z,20.59
2017-10-23T05:10:15.050Z,20.58
2017-10-23T05:10:43.163Z,20.55
2017-10-23T05:11:11.256Z,20.59
2017-10-23T05:11:39.377Z,20.64
2017-10-23T05:12:07.394Z,20.63
2017-10-23T05:12:35.315Z,20.58
2017-10-23T05:13:03.422Z,20.64
2017-10-23T05:13:31.433Z,20.59
2017-10-23T05:13:59.363Z,20.6
2017-10-23T05:14:27.271Z,20.64
2017-10-23T05:14:55.265Z,20.64
2017-10-23T05:15:23.392Z,20.63
2017-10-23T05:15:51.432Z,20.66
2017-10-23T05:16:19.454Z,20.68
2017-10-23T05:16:47.546Z,20.71
2017-10-23T05:17:15.552Z,20.73
2017-10-23T05:17:43.370Z,20.67
2017-10-23T05:18:11.355Z,20.75
2017-10-23T05:18:39.376Z,20.7
2017-10-23T05:19:07.481Z,20.75
2017-10-23T05:19:35.503Z,20.73
2017-10-23T05:20:03.416Z,20.73
2017-10-23T05:20:31.445Z,20.71
2017-10-23T05:20:59.376Z,20.77
2017-10-23T05:21:27.394Z,20.71
2017-10-23T05:21:55.492Z,20.75
2017-10-23T05:22:23.616Z,20.73
2017-10-23T05:22:51.533Z,20.74
2017-10-23T05:23:19.768Z,20.74
2017-10-23T05:23:47.677Z,20.75
2017-10-23T05:24:15.606Z,20.75
2017-10-23T05:24:43.722Z,20.71
2017-10-23T05:25:11.733Z,20.77
2017-10-23T05:25:39.653Z,20.7
2017-10-23T05:26:07.569Z,20.73
2017-10-23T05:26:35.700Z,20.78
2017-10-23T05:27:03.693Z,20.86
2017-10-23T05:27:31.592Z,20.71
2017-10-23T05:27:59.608Z,20.85
2017-10-23T05:28:27.512Z,20.89
2017-10-23T05:28:55.641Z,20.89
2017-10-23T05:29:23.456Z,20.86
2017-10-23T05:29:51.390Z,20.85
2017-10-23T05:30:20.285Z,20.86
2017-10-23T05:30:48.328Z,20.8
2017-10-23T05:31:16.341Z,20.8
2017-10-23T05:31:44.460Z,20.85
2017-10-23T05:32:12.437Z,20.8
2017-10-23T05:32:40.369Z,20.9
2017-10-23T05:33:08.498Z,20.82
2017-10-23T05:33:36.503Z,20.85
2017-10-23T05:34:04.416Z,20.88
2017-10-23T05:34:32.445Z,20.82
2017-10-23T05:35:01.255Z,20.89
2017-10-23T05:35:29.202Z,20.8
2017-10-23T05:35:57.200Z,20.8
2017-10-23T05:36:25.222Z,20.86
2017-10-23T05:36:53.124Z,20.89
2017-10-23T05:37:21.139Z,20.82
2017-10-23T05:37:49.176Z,20.86
2017-10-23T05:38:17.284Z,20.82
2017-10-23T05:38:45.189Z,20.9
2017-10-23T05:39:13.107Z,20.85
2017-10-23T05:39:40.919Z,20.82
2017-10-23T05:40:08.856Z,20.86
2017-10-23T05:40:36.791Z,20.88
2017-10-23T05:41:04.713Z,20.73
2017-10-23T05:41:32.535Z,20.82
2017-10-23T05:42:00.668Z,20.83
2017-10-23T05:42:28.606Z,20.88
2017-10-23T05:42:56.745Z,20.83
2017-10-23T05:43:24.749Z,20.85
2017-10-23T05:43:52.678Z,20.82
2017-10-23T05:44:20.669Z,20.74
2017-10-23T05:44:48.676Z,20.75
2017-10-23T05:45:16.708Z,20.86
2017-10-23T05:45:44.711Z,20.78
2017-10-23T05:46:12.637Z,20.8
2017-10-23T05:46:40.663Z,20.78
2017-10-23T05:47:08.782Z,20.82
2017-10-23T05:47:36.722Z,20.82
2017-10-23T05:48:04.747Z,20.86
2017-10-23T05:48:32.771Z,20.85
2017-10-23T05:49:00.798Z,20.74
2017-10-23T05:49:28.827Z,20.82
2017-10-23T05:49:56.844Z,20.77
2017-10-23T05:50:24.656Z,20.82
2017-10-23T05:50:52.661Z,20.8
2017-10-23T05:51:20.670Z,20.83
2017-10-23T05:51:48.462Z,20.82
2017-10-23T05:52:16.450Z,20.86
2017-10-23T05:52:44.465Z,20.85
2017-10-23T05:53:12.498Z,20.85
2017-10-23T05:53:40.619Z,20.83
2017-10-23T05:54:08.628Z,20.82
2017-10-23T05:54:36.719Z,20.86
2017-10-23T05:55:04.745Z,20.75
2017-10-23T05:55:32.766Z,20.85
2017-10-23T05:56:00.917Z,20.82
2017-10-23T05:56:29.040Z,20.73
2017-10-23T05:56:57.158Z,20.83
2017-10-23T05:57:25.164Z,20.88
2017-10-23T05:57:53.256Z,20.86
2017-10-23T05:58:21.270Z,20.75
2017-10-23T05:58:49.368Z,20.77
2017-10-23T05:59:17.524Z,20.74
2017-10-23T05:59:45.452Z,20.75
2017-10-23T06:00:13.354Z,20.77
2017-10-23T06:00:41.475Z,20.75
2017-10-23T06:01:09.499Z,20.74
2017-10-23T06:01:37.514Z,20.75
2017-10-23T06:02:05.515Z,20.75
2017-10-23T06:02:33.352Z,20.75
2017-10-23T06:03:01.495Z,20.8